createdAt,value
2018-05-15T00:02:01.395Z,13.50
2018-05-15T00:04:28.846Z,13.30
2018-05-15T00:06:56.313Z,13.80
2018-05-15T00:09:23.755Z,12.90
2018-05-15T00:11:51.206Z,12.93
2018-05-15T00:14:18.663Z,14.47
2018-05-15T00:16:46.115Z,14.80
2018-05-15T00:19:13.571Z,15.57
2018-05-15T00:21:41.036Z,15.47
2018-05-15T00:24:08.495Z,14.50
2018-05-15T00:26:35.955Z,17.00
2018-05-15T00:29:03.407Z,14.83
2018-05-15T00:31:30.868Z,17.10
2018-05-15T00:33:58.327Z,16.03
2018-05-15T00:36:25.789Z,15.97
2018-05-15T00:38:53.249Z,15.67
2018-05-15T00:41:20.703Z,16.27
2018-05-15T00:43:48.154Z,16.00
2018-05-15T00:46:15.615Z,14.70
2018-05-15T00:48:43.066Z,16.20
2018-05-15T00:51:10.527Z,15.80
2018-05-15T00:53:37.988Z,15.17
2018-05-15T00:56:05.447Z,16.50
2018-05-15T00:58:33.725Z,16.20
2018-05-15T01:01:01.180Z,14.87
2018-05-15T01:03:28.640Z,14.87
2018-05-15T01:05:56.104Z,16.93
2018-05-15T01:08:23.558Z,16.80
2018-05-15T01:10:51.019Z,17.53
2018-05-15T01:13:18.470Z,16.70
2018-05-15T01:15:45.923Z,15.40
2018-05-15T01:18:13.376Z,18.60
2018-05-15T01:20:40.832Z,15.87
2018-05-15T01:23:08.298Z,15.90
2018-05-15T01:25:35.752Z,15.63
2018-05-15T01:28:03.208Z,16.33
2018-05-15T01:30:30.660Z,16.33
2018-05-15T01:32:58.124Z,16.20
2018-05-15T01:35:25.582Z,17.60
2018-05-15T01:37:53.043Z,18.73
2018-05-15T01:40:20.516Z,19.27
2018-05-15T01:42:48.738Z,18.70
2018-05-15T01:45:16.193Z,22.27
2018-05-15T01:47:43.660Z,20.70
2018-05-15T01:50:11.098Z,22.10
2018-05-15T01:52:38.560Z,22.60
2018-05-15T01:55:06.012Z,22.63
2018-05-15T01:57:33.472Z,24.47
2018-05-15T02:00:00.914Z,25.80
2018-05-15T02:02:28.391Z,23.50
2018-05-15T02:04:55.836Z,25.60
2018-05-15T02:07:23.300Z,23.63
2018-05-15T02:09:50.751Z,23.07
2018-05-15T02:12:18.213Z,22.93
2018-05-15T02:14:45.668Z,19.63
2018-05-15T02:17:13.124Z,21.37
2018-05-15T02:19:40.579Z,23.87
2018-05-15T02:22:08.036Z,22.70
2018-05-15T02:24:35.495Z,24.73
2018-05-15T02:27:03.006Z,25.73
2018-05-15T02:29:30.407Z,25.00
2018-05-15T02:31:57.863Z,25.17
2018-05-15T02:34:25.322Z,27.17
2018-05-15T02:36:52.788Z,27.00
2018-05-15T02:39:20.244Z,26.70
2018-05-15T02:41:47.701Z,27.93
2018-05-15T02:44:15.152Z,28.93
2018-05-15T02:46:42.608Z,27.37
2018-05-15T02:49:10.046Z,27.80
2018-05-15T02:51:37.519Z,28.27
2018-05-15T02:54:04.968Z,30.17
2018-05-15T02:56:32.424Z,31.07
2018-05-15T02:58:59.895Z,28.60
2018-05-15T03:01:27.348Z,28.10
2018-05-15T03:03:54.795Z,31.83
2018-05-15T03:06:22.262Z,31.30
2018-05-15T03:08:49.737Z,30.77
2018-05-15T03:11:17.193Z,34.33
2018-05-15T03:13:44.652Z,32.90
2018-05-15T03:16:12.103Z,32.80
2018-05-15T03:18:39.564Z,30.37
2018-05-15T03:21:07.019Z,33.20
2018-05-15T03:23:34.472Z,33.60
2018-05-15T03:26:01.920Z,30.10
2018-05-15T03:28:29.375Z,33.17
2018-05-15T03:30:56.832Z,32.87
2018-05-15T03:33:24.288Z,33.50
2018-05-15T03:35:51.747Z,33.70
2018-05-15T03:38:19.207Z,34.20
2018-05-15T03:40:46.660Z,35.67
2018-05-15T03:43:14.116Z,37.23
2018-05-15T03:45:41.571Z,39.20
2018-05-15T03:48:09.052Z,38.80
2018-05-15T03:50:36.508Z,38.00
2018-05-15T03:53:03.968Z,35.70
2018-05-15T03:55:31.424Z,39.60
2018-05-15T03:57:58.879Z,37.70
2018-05-15T04:00:38.278Z,38.53
2018-05-15T04:03:18.446Z,38.37
2018-05-15T04:05:57.730Z,34.70
2018-05-15T04:08:25.182Z,33.53
2018-05-15T04:10:52.737Z,34.83
2018-05-15T04:13:20.095Z,30.40
2018-05-15T04:15:47.551Z,32.60
2018-05-15T04:18:15.009Z,30.43
2018-05-15T04:20:42.464Z,29.20
2018-05-15T04:23:09.924Z,28.87
2018-05-15T04:25:37.376Z,29.23
2018-05-15T04:28:04.884Z,28.07
2018-05-15T04:30:32.293Z,28.40
2018-05-15T04:32:59.747Z,24.30
2018-05-15T04:35:27.208Z,24.27
2018-05-15T04:37:54.662Z,24.57
2018-05-15T04:40:22.115Z,25.80
2018-05-15T04:42:49.573Z,26.03
2018-05-15T04:45:17.037Z,27.37
2018-05-15T04:47:44.493Z,25.60
2018-05-15T04:50:11.947Z,25.87
2018-05-15T04:52:39.408Z,26.60
2018-05-15T04:55:06.873Z,26.43
2018-05-15T04:57:34.323Z,23.80
2018-05-15T05:00:01.788Z,25.60
2018-05-15T05:02:29.247Z,23.70
2018-05-15T05:04:57.496Z,20.70
2018-05-15T05:07:24.958Z,20.80
2018-05-15T05:09:52.412Z,19.10
2018-05-15T05:12:19.864Z,17.60
2018-05-15T05:14:47.336Z,13.23
2018-05-15T05:17:14.784Z,13.43
2018-05-15T05:19:42.252Z,12.20
2018-05-15T05:22:09.699Z,11.83
2018-05-15T05:24:37.175Z,11.90
2018-05-15T05:27:04.707Z,10.20
2018-05-15T05:29:32.884Z,10.50
2018-05-15T05:32:00.355Z,10.70
2018-05-15T05:34:27.817Z,8.93
2018-05-15T05:36:55.272Z,8.67
2018-05-15T05:39:22.723Z,11.07
2018-05-15T05:41:50.179Z,10.17
2018-05-15T05:44:17.640Z,8.17
2018-05-15T05:46:45.079Z,7.17
2018-05-15T05:49:12.545Z,7.77
2018-05-15T05:51:39.996Z,7.80
2018-05-15T05:54:07.456Z,7.97
2018-05-15T05:56:34.908Z,6.20
2018-05-15T05:59:02.364Z,6.93
2018-05-15T06:01:29.811Z,5.47
2018-05-15T06:03:57.305Z,5.90
2018-05-15T06:06:24.728Z,5.83
2018-05-15T06:08:52.184Z,5.17
2018-05-15T06:11:19.650Z,5.30
2018-05-15T06:13:47.110Z,5.20
2018-05-15T06:16:14.581Z,5.50
2018-05-15T06:18:42.066Z,4.93
2018-05-15T06:21:10.288Z,4.93
2018-05-15T06:23:37.757Z,4.70
2018-05-15T06:26:05.203Z,5.10
2018-05-15T06:28:32.663Z,5.80
2018-05-15T06:31:00.104Z,5.33
2018-05-15T06:33:27.558Z,5.33
2018-05-15T06:35:54.998Z,6.00
2018-05-15T06:38:22.439Z,5.60
2018-05-15T06:40:50.662Z,5.00
2018-05-15T06:43:18.127Z,5.03
2018-05-15T06:45:45.585Z,4.93
2018-05-15T06:48:13.140Z,5.43
2018-05-15T06:50:40.644Z,5.20
2018-05-15T06:53:08.992Z,4.40
2018-05-15T06:55:36.460Z,4.50
2018-05-15T06:58:03.920Z,4.40
2018-05-15T07:00:31.416Z,3.73
2018-05-15T07:02:58.897Z,5.00
2018-05-15T07:05:26.347Z,4.13
2018-05-15T07:07:53.989Z,4.10
2018-05-15T07:10:22.839Z,4.97
2018-05-15T07:12:50.349Z,4.93
2018-05-15T07:15:17.816Z,4.60
2018-05-15T07:17:46.275Z,4.93
2018-05-15T07:20:13.734Z,4.67
2018-05-15T07:22:41.184Z,4.87
2018-05-15T07:25:08.992Z,5.00
2018-05-15T07:27:37.265Z,6.23
2018-05-15T07:30:04.733Z,5.07
2018-05-15T07:32:32.185Z,5.70
2018-05-15T07:35:00.442Z,5.07
2018-05-15T07:37:27.913Z,4.67
2018-05-15T07:39:55.448Z,4.67
2018-05-15T07:42:23.001Z,5.17
2018-05-15T07:44:50.490Z,5.87
2018-05-15T07:47:18.012Z,4.50
2018-05-15T07:49:45.821Z,4.73
2018-05-15T07:52:13.293Z,4.37
2018-05-15T07:54:40.775Z,4.60
2018-05-15T07:57:08.987Z,5.03
2018-05-15T07:59:36.493Z,4.60
2018-05-15T08:02:04.073Z,5.87
2018-05-15T08:04:31.524Z,4.90
2018-05-15T08:06:58.929Z,5.83
2018-05-15T08:09:26.392Z,5.40
2018-05-15T08:11:53.870Z,4.80
2018-05-15T08:14:21.386Z,5.53
2018-05-15T08:16:48.896Z,5.67
2018-05-15T08:19:16.357Z,5.57
2018-05-15T08:21:43.810Z,5.63
2018-05-15T08:24:11.300Z,5.60
2018-05-15T08:26:38.809Z,5.17
2018-05-15T08:29:06.289Z,5.57
2018-05-15T08:31:33.744Z,5.20
2018-05-15T08:34:01.208Z,5.47
2018-05-15T08:36:29.449Z,5.87
2018-05-15T08:38:56.940Z,5.57
2018-05-15T08:41:25.182Z,5.10
2018-05-15T08:43:52.673Z,6.27
2018-05-15T08:46:20.933Z,5.33
2018-05-15T08:48:48.408Z,5.20
2018-05-15T08:51:16.639Z,5.60
2018-05-15T08:53:44.170Z,5.20
2018-05-15T08:56:11.641Z,4.23
2018-05-15T08:58:39.272Z,5.00
2018-05-15T09:01:06.784Z,5.50
2018-05-15T09:03:34.253Z,4.50
2018-05-15T09:06:01.705Z,4.60
2018-05-15T09:08:29.234Z,4.60
2018-05-15T09:10:56.724Z,3.97
2018-05-15T09:13:24.180Z,4.70
2018-05-15T09:15:51.785Z,4.27
2018-05-15T09:18:19.294Z,4.27
2018-05-15T09:20:46.796Z,4.80
2018-05-15T09:23:14.272Z,4.27
2018-05-15T09:25:41.801Z,4.50
2018-05-15T09:28:10.131Z,5.10
2018-05-15T09:30:38.537Z,5.87
2018-05-15T09:33:07.146Z,6.23
2018-05-15T09:35:34.639Z,6.33
2018-05-15T09:38:02.192Z,6.30
2018-05-15T09:40:29.687Z,6.00
2018-05-15T09:42:57.163Z,6.33
2018-05-15T09:45:24.640Z,6.57
2018-05-15T09:47:53.024Z,6.50
2018-05-15T09:50:20.653Z,7.07
2018-05-15T09:52:48.553Z,6.37
2018-05-15T09:55:16.047Z,7.10
2018-05-15T09:57:43.488Z,6.60
2018-05-15T10:00:10.985Z,6.30
2018-05-15T10:02:38.581Z,6.27
2018-05-15T10:05:06.976Z,5.90
2018-05-15T10:07:34.565Z,5.80
2018-05-15T10:10:02.169Z,5.70
2018-05-15T10:12:30.395Z,4.67
2018-05-15T10:14:57.864Z,4.73
2018-05-15T10:17:25.317Z,4.73
2018-05-15T10:19:52.855Z,5.10
2018-05-15T10:22:20.238Z,3.90
2018-05-15T10:24:47.748Z,4.37
2018-05-15T10:27:15.992Z,4.83
2018-05-15T10:29:43.637Z,6.23
2018-05-15T10:32:11.921Z,6.30
2018-05-15T10:34:39.359Z,9.70
2018-05-15T10:37:06.814Z,10.47
2018-05-15T10:39:34.320Z,8.50
2018-05-15T10:42:02.564Z,11.47
2018-05-15T10:44:30.022Z,10.80
2018-05-15T10:46:57.509Z,13.10
2018-05-15T10:49:25.736Z,14.90
2018-05-15T10:51:53.716Z,14.40
2018-05-15T10:54:21.177Z,13.50
2018-05-15T10:56:48.639Z,13.80
2018-05-15T10:59:16.100Z,13.10
2018-05-15T11:01:45.400Z,13.77
2018-05-15T11:04:12.931Z,14.80
2018-05-15T11:06:40.396Z,14.23
2018-05-15T11:09:07.855Z,16.20
2018-05-15T11:11:35.700Z,13.00
2018-05-15T11:14:03.847Z,15.17
2018-05-15T11:16:31.351Z,13.90
2018-05-15T11:19:10.661Z,14.23
2018-05-15T11:24:50.038Z,15.97
2018-05-15T11:27:17.502Z,13.20
2018-05-15T11:29:44.977Z,16.70
2018-05-15T11:32:12.449Z,11.97
2018-05-15T11:34:40.672Z,11.90
2018-05-15T11:37:08.148Z,12.33
2018-05-15T11:39:35.617Z,10.03
2018-05-15T11:42:03.081Z,9.20
2018-05-15T11:44:30.554Z,10.23
2018-05-15T11:46:58.834Z,9.90
2018-05-15T11:49:27.607Z,10.30
2018-05-15T11:51:55.787Z,10.70
2018-05-15T11:54:22.178Z,10.10
2018-05-15T11:56:49.868Z,10.17
2018-05-15T11:59:17.437Z,8.57
2018-05-15T12:01:44.993Z,9.70
2018-05-15T12:04:12.487Z,11.17
2018-05-15T12:06:40.071Z,10.20
2018-05-15T12:09:07.446Z,10.70
2018-05-15T12:11:34.906Z,7.93
2018-05-15T12:14:02.887Z,9.10
2018-05-15T12:16:30.349Z,8.93
2018-05-15T12:18:57.813Z,7.80
2018-05-15T12:21:25.273Z,7.87
2018-05-15T12:23:53.558Z,9.90
2018-05-15T12:26:21.794Z,8.00
2018-05-15T12:28:49.240Z,8.20
2018-05-15T12:31:16.719Z,7.70
2018-05-15T12:33:44.166Z,8.50
2018-05-15T12:36:11.629Z,7.43
2018-05-15T12:38:39.073Z,7.77
2018-05-15T12:41:06.688Z,8.57
2018-05-15T12:43:34.338Z,8.60
2018-05-15T12:46:02.571Z,8.53
2018-05-15T12:48:31.756Z,8.20
2018-05-15T12:51:00.763Z,8.27
2018-05-15T12:53:29.864Z,8.70
2018-05-15T12:55:58.992Z,8.27
2018-05-15T12:58:28.096Z,7.27
2018-05-15T13:00:57.205Z,7.70
2018-05-15T13:03:26.318Z,10.70
2018-05-15T13:05:55.445Z,10.10
2018-05-15T13:08:24.696Z,9.40
2018-05-15T13:10:53.804Z,10.60
2018-05-15T13:13:22.902Z,12.20
2018-05-15T13:15:52.022Z,9.00
2018-05-15T13:18:21.167Z,10.03
2018-05-15T13:20:50.258Z,10.70
2018-05-15T13:23:19.385Z,11.13
2018-05-15T13:25:48.488Z,10.30
2018-05-15T13:28:17.599Z,12.60
2018-05-15T13:30:46.713Z,10.60
2018-05-15T13:33:15.835Z,12.20
2018-05-15T13:35:44.933Z,12.57
2018-05-15T13:38:14.056Z,10.73
2018-05-15T13:40:43.186Z,10.67
2018-05-15T13:43:12.286Z,10.33
2018-05-15T13:45:41.384Z,11.23
2018-05-15T13:48:10.511Z,10.57
2018-05-15T13:50:39.616Z,8.80
2018-05-15T13:53:08.720Z,9.90
2018-05-15T13:55:37.829Z,8.47
2018-05-15T13:58:06.929Z,8.20
2018-05-15T14:00:36.037Z,7.83
2018-05-15T14:03:05.143Z,8.33
2018-05-15T14:05:34.392Z,7.57
2018-05-15T14:08:03.550Z,7.43
2018-05-15T14:10:32.760Z,7.00
2018-05-15T14:13:01.905Z,7.67
2018-05-15T14:15:31.023Z,5.80
2018-05-15T14:18:00.137Z,6.20
2018-05-15T14:20:30.252Z,6.20
2018-05-15T14:22:59.390Z,6.50
2018-05-15T14:25:28.497Z,6.27
2018-05-15T14:27:57.642Z,5.30
2018-05-15T14:30:26.770Z,5.00
2018-05-15T14:32:55.914Z,5.83
2018-05-15T14:35:25.042Z,4.77
2018-05-15T14:37:54.168Z,4.50
2018-05-15T14:40:23.289Z,4.40
2018-05-15T14:42:58.191Z,4.50
2018-05-15T14:45:27.264Z,4.00
2018-05-15T14:47:56.376Z,3.93
2018-05-15T14:50:25.531Z,3.33
2018-05-15T14:52:54.777Z,4.40
2018-05-15T14:55:23.964Z,2.70
2018-05-15T14:57:53.090Z,3.87
2018-05-15T15:00:22.224Z,2.73
2018-05-15T15:02:51.392Z,3.00
2018-05-15T15:05:20.589Z,2.30
2018-05-15T15:07:49.716Z,3.20
2018-05-15T15:10:18.914Z,2.20
2018-05-15T15:12:48.063Z,2.77
2018-05-15T15:15:17.140Z,2.20
2018-05-15T15:17:46.258Z,2.30
2018-05-15T15:20:15.366Z,2.63
2018-05-15T15:22:44.488Z,2.93
2018-05-15T15:25:13.610Z,2.40
2018-05-15T15:27:42.740Z,2.00
2018-05-15T15:30:11.857Z,2.57
2018-05-15T15:32:40.963Z,2.20
2018-05-15T15:35:10.079Z,2.30
2018-05-15T15:37:39.189Z,2.50
2018-05-15T15:40:08.292Z,2.40
2018-05-15T15:42:37.481Z,1.80
2018-05-15T15:45:06.605Z,2.27
2018-05-15T15:47:35.717Z,1.93
2018-05-15T15:50:04.832Z,2.17
2018-05-15T15:52:33.957Z,1.97
2018-05-15T15:55:03.063Z,2.57
2018-05-15T15:57:32.228Z,2.70
2018-05-15T16:00:02.387Z,3.67
2018-05-15T16:02:31.834Z,3.30
2018-05-15T16:05:00.999Z,3.70
2018-05-15T16:07:30.148Z,4.13
2018-05-15T16:09:59.377Z,5.50
2018-05-15T16:12:28.425Z,4.93
2018-05-15T16:14:57.619Z,4.20
2018-05-15T16:17:26.741Z,3.93
2018-05-15T16:19:55.873Z,3.67
2018-05-15T16:22:24.986Z,4.53
2018-05-15T16:24:54.131Z,4.90
2018-05-15T16:27:23.511Z,3.93
2018-05-15T16:29:52.640Z,4.00
2018-05-15T16:32:21.794Z,4.27
2018-05-15T16:34:50.893Z,4.23
2018-05-15T16:37:20.009Z,4.77
2018-05-15T16:39:49.123Z,4.20
2018-05-15T16:42:18.228Z,4.07
2018-05-15T16:44:47.331Z,5.10
2018-05-15T16:47:16.582Z,3.40
2018-05-15T16:49:45.603Z,3.17
2018-05-15T16:52:14.715Z,4.10
2018-05-15T16:54:43.850Z,2.60
2018-05-15T16:57:12.975Z,3.00
2018-05-15T16:59:42.103Z,2.70
2018-05-15T17:02:11.221Z,3.03
2018-05-15T17:04:40.354Z,2.00
2018-05-15T17:07:09.455Z,2.63
2018-05-15T17:09:38.585Z,2.93
2018-05-15T17:12:07.684Z,2.80
2018-05-15T17:14:36.809Z,2.50
2018-05-15T17:17:05.948Z,2.57
2018-05-15T17:19:35.062Z,2.47
2018-05-15T17:22:04.173Z,2.90
2018-05-15T17:24:33.295Z,2.97
2018-05-15T17:27:02.448Z,2.20
2018-05-15T17:29:31.569Z,2.10
2018-05-15T17:32:00.684Z,3.00
2018-05-15T17:34:29.827Z,2.83
2018-05-15T17:36:59.112Z,4.27
2018-05-15T17:39:28.243Z,6.23
2018-05-15T17:41:57.362Z,9.23
2018-05-15T17:44:26.576Z,9.10
2018-05-15T17:46:55.701Z,9.83
2018-05-15T17:49:24.907Z,10.77
2018-05-15T17:51:54.053Z,9.90
2018-05-15T17:54:23.172Z,10.07
2018-05-15T17:56:52.287Z,11.27
2018-05-15T17:59:21.582Z,11.10
2018-05-15T18:01:50.667Z,7.50
2018-05-15T18:04:19.813Z,3.63
2018-05-15T18:06:48.931Z,3.90
2018-05-15T18:09:18.044Z,3.30
2018-05-15T18:11:47.173Z,3.17
2018-05-15T18:14:16.853Z,3.00
2018-05-15T18:16:45.964Z,4.10
2018-05-15T18:19:15.105Z,4.03
2018-05-15T18:21:44.401Z,4.77
2018-05-15T18:24:13.524Z,4.03
2018-05-15T18:26:42.667Z,5.03
2018-05-15T18:29:11.784Z,5.20
2018-05-15T18:31:40.900Z,5.47
2018-05-15T18:34:10.028Z,5.63
2018-05-15T18:36:39.271Z,6.97
2018-05-15T18:39:08.452Z,6.40
2018-05-15T18:41:37.567Z,7.30
2018-05-15T18:44:06.695Z,6.77
2018-05-15T18:46:35.809Z,7.20
2018-05-15T18:49:04.938Z,7.10
2018-05-15T18:51:34.060Z,7.90
2018-05-15T18:54:03.188Z,7.13
2018-05-15T18:56:32.323Z,7.47
2018-05-15T18:59:01.452Z,7.60
2018-05-15T19:01:30.638Z,7.67
2018-05-15T19:03:59.756Z,9.23
2018-05-15T19:06:28.887Z,8.40
2018-05-15T19:08:58.024Z,7.73
2018-05-15T19:11:27.124Z,7.60
2018-05-15T19:13:56.258Z,9.00
2018-05-15T19:16:25.349Z,7.40
2018-05-15T19:18:54.469Z,9.93
2018-05-15T19:21:23.594Z,9.23
2018-05-15T19:23:52.713Z,7.30
2018-05-15T19:26:21.869Z,7.70
2018-05-15T19:28:50.988Z,9.10
2018-05-15T19:31:25.938Z,8.03
2018-05-15T19:33:55.090Z,7.40
2018-05-15T19:36:30.032Z,6.90
2018-05-15T19:39:05.106Z,7.33
2018-05-15T19:41:34.251Z,7.63
2018-05-15T19:44:03.377Z,7.40
2018-05-15T19:46:32.482Z,7.80
2018-05-15T19:49:01.622Z,7.40
2018-05-15T19:51:30.734Z,6.70
2018-05-15T19:53:59.856Z,7.40
2018-05-15T19:56:28.968Z,7.57
2018-05-15T19:58:58.071Z,8.03
2018-05-15T20:01:27.175Z,8.37
2018-05-15T20:03:56.281Z,9.40
2018-05-15T20:06:25.366Z,8.20
2018-05-15T20:08:54.464Z,8.33
2018-05-15T20:11:23.555Z,7.40
2018-05-15T20:13:52.654Z,8.20
2018-05-15T20:16:21.752Z,9.07
2018-05-15T20:18:50.846Z,7.90
2018-05-15T20:21:19.953Z,8.53
2018-05-15T20:23:49.104Z,8.77
2018-05-15T20:26:18.159Z,7.97
2018-05-15T20:28:47.260Z,7.80
2018-05-15T20:31:16.363Z,8.53
2018-05-15T20:33:45.471Z,8.30
2018-05-15T20:36:14.571Z,9.30
2018-05-15T20:38:43.670Z,8.90
2018-05-15T20:41:12.767Z,10.03
2018-05-15T20:43:41.870Z,7.97
2018-05-15T20:46:10.968Z,7.57
2018-05-15T20:48:40.103Z,10.47
2018-05-15T20:51:09.195Z,9.10
2018-05-15T20:53:38.290Z,9.90
2018-05-15T20:56:07.403Z,10.40
2018-05-15T20:58:36.503Z,10.67
2018-05-15T21:01:05.607Z,11.90
2018-05-15T21:03:34.710Z,10.53
2018-05-15T21:06:03.814Z,11.37
2018-05-15T21:08:32.920Z,13.17
2018-05-15T21:11:02.028Z,11.97
2018-05-15T21:13:31.152Z,10.23
2018-05-15T21:16:00.367Z,11.40
2018-05-15T21:18:29.451Z,13.70
2018-05-15T21:20:58.556Z,13.30
2018-05-15T21:23:27.669Z,11.93
2018-05-15T21:25:56.791Z,12.93
2018-05-15T21:28:25.894Z,12.23
2018-05-15T21:30:55.003Z,15.27
2018-05-15T21:33:24.103Z,13.20
2018-05-15T21:35:53.215Z,13.13
2018-05-15T21:38:22.311Z,12.57
2018-05-15T21:40:51.421Z,14.67
2018-05-15T21:43:20.522Z,14.83
2018-05-15T21:45:49.622Z,13.23
2018-05-15T21:48:18.736Z,14.80
2018-05-15T21:50:47.546Z,14.20
2018-05-15T21:53:20.802Z,16.30
2018-05-15T21:55:49.644Z,13.77
2018-05-15T21:58:18.493Z,15.20
2018-05-15T22:00:47.346Z,14.20
2018-05-15T22:03:16.215Z,15.23
2018-05-15T22:05:45.091Z,15.10
2018-05-15T22:08:13.965Z,15.13
2018-05-15T22:10:42.887Z,15.50
2018-05-15T22:13:17.532Z,16.17
2018-05-15T22:15:52.412Z,14.77
2018-05-15T22:18:27.267Z,14.90
2018-05-15T22:21:02.263Z,14.17
2018-05-15T22:23:31.091Z,16.63
2018-05-15T22:26:00.195Z,16.37
2018-05-15T22:28:29.295Z,17.10
2018-05-15T22:30:58.403Z,17.27
2018-05-15T22:33:27.504Z,15.87
2018-05-15T22:35:56.615Z,15.60
2018-05-15T22:38:25.708Z,15.10
2018-05-15T22:40:54.810Z,15.50
2018-05-15T22:43:23.944Z,15.17
2018-05-15T22:45:53.055Z,16.60
2018-05-15T22:48:22.150Z,15.87
2018-05-15T22:50:51.259Z,16.47
2018-05-15T22:53:20.359Z,16.63
2018-05-15T22:55:49.463Z,16.90
2018-05-15T22:58:18.560Z,16.73
2018-05-15T23:00:47.667Z,16.43
2018-05-15T23:03:16.771Z,18.23
2018-05-15T23:05:45.878Z,16.67
2018-05-15T23:08:14.978Z,17.67
2018-05-15T23:10:44.091Z,18.43
2018-05-15T23:13:13.183Z,18.67
2018-05-15T23:15:42.359Z,18.33
2018-05-15T23:18:11.386Z,18.33
2018-05-15T23:20:40.496Z,19.10
2018-05-15T23:23:09.590Z,18.20
2018-05-15T23:25:38.695Z,19.70
2018-05-15T23:28:07.804Z,17.37
2018-05-15T23:30:36.906Z,19.30
2018-05-15T23:33:06.016Z,19.33
2018-05-15T23:35:35.123Z,18.90
2018-05-15T23:38:04.223Z,19.40
2018-05-15T23:40:33.327Z,18.40
2018-05-15T23:43:02.426Z,19.30
2018-05-15T23:45:31.536Z,19.73
2018-05-15T23:48:00.656Z,20.70
2018-05-15T23:50:29.756Z,17.60
2018-05-15T23:52:58.865Z,19.30
2018-05-15T23:55:27.961Z,19.57
2018-05-15T23:57:57.074Z,17.77
